CheckWX is a tool to help pilots better visualize weather data.  It is not intended as a substitute for an official pre-flight weather briefing.

11:21:23 UTC

KOLF TAF
L M Clayton Airport
Wolf Point, Montana, USA
KOLF 240534Z 2406/2506 VRB05KT P6SM BKN100 FM241400 27011KT P6SM BKN060 FM241800 30014KT P6SM VCSH OVC050 FM250200 28006KT P6SM BKN070

Jun-24@
06:00 UTC

Jun-24 @ 06:00 UTC

Jun-24@
14:00 UTC

Jun-24 @ 14:00 UTC

KOLF 240534Z 2406/2506 VRB05KT P6SM BKN100
Wind
  • Variable at 5 KTS
Cloud Levels
  • Broken at 10,000' AGL

Jun-24@
14:00 UTC

Jun-24 @ 14:00 UTC

Jun-24@
18:00 UTC

Jun-24 @ 18:00 UTC

FM241400 27011KT P6SM BKN060

From

From Standard forecast or significant change

Wind
  • 270° at 11 KTS
Cloud Levels
  • Broken at 6,000' AGL

Jun-24@
18:00 UTC

Jun-24 @ 18:00 UTC

Jun-25@
02:00 UTC

Jun-25 @ 02:00 UTC

FM241800 30014KT P6SM VCSH OVC050

From

From Standard forecast or significant change

Wind
  • 300° at 14 KTS
Cloud Levels
  • Overcast at 5,000' AGL

Jun-25@
02:00 UTC

Jun-25 @ 02:00 UTC

Jun-25@
06:00 UTC

Jun-25 @ 06:00 UTC

FM250200 28006KT P6SM BKN070

From

From Standard forecast or significant change

Wind
  • 280° at 6 KTS
Cloud Levels
  • Broken at 7,000' AGL